createdAt,value
2016-06-06T08:40:08.167Z,2516
2016-06-06T08:40:27.261Z,2512
2016-06-06T08:41:20.858Z,2508
2016-06-06T08:42:23.830Z,2516
2016-06-06T08:43:27.598Z,2528
2016-06-06T08:44:24.960Z,2540
2016-06-06T08:45:29.838Z,2552
2016-06-06T08:46:20.433Z,2552
2016-06-06T08:47:26.390Z,2568
2016-06-06T08:48:23.752Z,2576
2016-06-06T08:49:20.583Z,2564
2016-06-06T08:50:20.319Z,2556
2016-06-06T08:51:20.260Z,2556
2016-06-06T08:52:20.607Z,2572
2016-06-06T08:53:20.187Z,2580
2016-06-06T08:54:20.127Z,2600
2016-06-06T08:55:23.130Z,2604
2016-06-06T08:56:20.023Z,2600
2016-06-06T08:57:25.979Z,2608
2016-06-06T08:58:20.137Z,2608
2016-06-06T08:59:24.641Z,2612
2016-06-06T09:00:20.175Z,2612
2016-06-06T09:01:19.834Z,2608
2016-06-06T09:02:19.821Z,2592
2016-06-06T09:03:19.886Z,2588
2016-06-06T09:04:19.732Z,2588
2016-06-06T09:05:20.064Z,2596
2016-06-06T09:06:19.659Z,2600
2016-06-06T09:07:19.584Z,2608
2016-06-06T09:08:19.586Z,2604
2016-06-06T09:09:19.840Z,2596
2016-06-06T09:10:22.452Z,2596
2016-06-06T09:11:19.408Z,2600
2016-06-06T09:12:19.379Z,2592
2016-06-06T09:13:19.397Z,2596
2016-06-06T09:14:20.119Z,2616
2016-06-06T09:15:19.261Z,2616
2016-06-06T09:16:19.249Z,2620
2016-06-06T09:17:19.502Z,2612
2016-06-06T09:18:18.958Z,2604
2016-06-06T09:19:19.101Z,2620
2016-06-06T09:20:19.447Z,2624
2016-06-06T09:21:19.013Z,2624
2016-06-06T09:22:19.140Z,2620
2016-06-06T09:23:19.127Z,2620
2016-06-06T09:24:18.880Z,2624
2016-06-06T09:25:18.898Z,2644
2016-06-06T09:26:19.026Z,2660
2016-06-06T09:27:21.779Z,2664
2016-06-06T09:28:21.704Z,2668
2016-06-06T09:29:19.424Z,2700
2016-06-06T09:30:18.912Z,2720
2016-06-06T09:31:19.179Z,2716
2016-06-06T09:32:19.089Z,2716
2016-06-06T09:33:18.701Z,2712
2016-06-06T09:34:18.470Z,2696
2016-06-06T09:35:18.457Z,2688
2016-06-06T09:36:18.365Z,2692
2016-06-06T09:37:18.650Z,2692
2016-06-06T09:38:18.277Z,2680
2016-06-06T09:39:21.342Z,2680
2016-06-06T09:40:18.204Z,2696
2016-06-06T09:41:18.364Z,2712
2016-06-06T09:42:18.194Z,2720
2016-06-06T09:43:18.259Z,2712
2016-06-06T09:44:18.574Z,2708
2016-06-06T09:45:18.062Z,2740
2016-06-06T09:46:18.283Z,2700
2016-06-06T09:47:18.239Z,2700
2016-06-06T09:48:18.257Z,2692
2016-06-06T09:49:18.697Z,2656
2016-06-06T09:50:18.090Z,2692
2016-06-06T09:51:20.593Z,2708
2016-06-06T09:52:17.877Z,2712
2016-06-06T09:53:17.724Z,2692
2016-06-06T09:54:17.836Z,2700
2016-06-06T09:55:17.869Z,2700
2016-06-06T09:56:17.732Z,2716
2016-06-06T09:57:17.547Z,2728
2016-06-06T09:58:17.487Z,2716
2016-06-06T09:59:19.537Z,2724
2016-06-06T10:00:17.415Z,2728
2016-06-06T10:01:17.371Z,2740
2016-06-06T10:02:17.263Z,2752
2016-06-06T10:03:23.235Z,2776
2016-06-06T10:04:17.190Z,2784
2016-06-06T10:05:17.209Z,2760
2016-06-06T10:06:16.978Z,2748
2016-06-06T10:07:17.262Z,2704
2016-06-06T10:08:17.029Z,2708
2016-06-06T10:09:17.032Z,2712
2016-06-06T10:10:16.941Z,2732
2016-06-06T10:11:17.117Z,2748
2016-06-06T10:12:17.259Z,2756
2016-06-06T10:13:17.324Z,2768
2016-06-06T10:14:17.484Z,2772
2016-06-06T10:15:17.142Z,2772
2016-06-06T10:16:16.567Z,2756
2016-06-06T10:17:16.835Z,2720
2016-06-06T10:18:16.619Z,2712
2016-06-06T10:19:16.559Z,2716
2016-06-06T10:20:22.750Z,2708
2016-06-06T10:21:16.486Z,2736
2016-06-06T10:22:19.661Z,2748
2016-06-06T10:23:16.477Z,2784
2016-06-06T10:24:16.229Z,2808
2016-06-06T10:25:16.341Z,2816
2016-06-06T10:26:16.110Z,2784
2016-06-06T10:27:16.268Z,2752
2016-06-06T10:28:16.192Z,2712
2016-06-06T10:29:16.868Z,2728
2016-06-06T10:30:19.276Z,2748
2016-06-06T10:31:16.279Z,2716
2016-06-06T10:32:16.015Z,2740
2016-06-06T10:33:16.221Z,2780
2016-06-06T10:34:16.146Z,2872
2016-06-06T10:35:16.306Z,2940
2016-06-06T10:36:16.542Z,2952
2016-06-06T10:37:16.154Z,2928
2016-06-06T10:38:19.703Z,2884
2016-06-06T10:39:15.723Z,2856
2016-06-06T10:40:15.725Z,2820
2016-06-06T10:41:15.650Z,2752
2016-06-06T10:42:18.699Z,2752
2016-06-06T10:43:15.420Z,2828
2016-06-06T10:44:15.580Z,2844
2016-06-06T10:45:15.754Z,2876
2016-06-06T10:46:15.460Z,2952
2016-06-06T10:47:15.431Z,2996
2016-06-06T10:48:18.512Z,2976
2016-06-06T10:49:21.389Z,2992
2016-06-06T10:50:15.314Z,2988
2016-06-06T10:51:15.239Z,2960
2016-06-06T10:52:15.211Z,2972
2016-06-06T10:53:15.416Z,3048
2016-06-06T10:54:21.528Z,3112
2016-06-06T10:55:14.922Z,3088
2016-06-06T10:56:15.018Z,3068
2016-06-06T10:57:15.005Z,3036
2016-06-06T10:58:14.788Z,3044
2016-06-06T10:59:22.026Z,3064
2016-06-06T11:00:18.498Z,3052
2016-06-06T11:01:14.907Z,3044
2016-06-06T11:02:14.815Z,3116
2016-06-06T11:03:17.818Z,3180
2016-06-06T11:04:14.727Z,3252
2016-06-06T11:05:14.746Z,3276
2016-06-06T11:06:14.640Z,3228
2016-06-06T11:07:20.813Z,3204
2016-06-06T11:08:14.737Z,3220
2016-06-06T11:09:17.568Z,3300
2016-06-06T11:10:17.650Z,3452
2016-06-06T11:11:14.606Z,3428
2016-06-06T11:12:15.030Z,3348
2016-06-06T11:13:17.423Z,3348
2016-06-06T11:14:22.317Z,3336
2016-06-06T11:15:17.944Z,3208
2016-06-06T11:16:14.181Z,3204
2016-06-06T11:17:14.183Z,3236
2016-06-06T11:18:14.125Z,3392
2016-06-06T11:19:14.002Z,3516
2016-06-06T11:20:14.036Z,3656
2016-06-06T11:21:17.086Z,4032
2016-06-06T11:22:13.963Z,3964
2016-06-06T11:23:13.903Z,3640
2016-06-06T11:24:13.875Z,3668
2016-06-06T11:25:13.690Z,4124
2016-06-06T11:26:13.818Z,4416
2016-06-06T11:27:13.774Z,4004
2016-06-06T11:28:13.635Z,3532
2016-06-06T11:29:15.122Z,3600
2016-06-06T11:30:18.454Z,3828
2016-06-06T11:31:13.581Z,3988
2016-06-06T11:32:16.599Z,3992
2016-06-06T11:33:13.540Z,3940
2016-06-06T11:34:13.682Z,3924
2016-06-06T11:35:13.654Z,3940
2016-06-06T11:36:13.345Z,3976
2016-06-06T11:37:13.348Z,3812
2016-06-06T11:38:13.709Z,4000
2016-06-06T11:39:13.571Z,4112
2016-06-06T11:40:13.761Z,4340
2016-06-06T11:41:16.389Z,4420
2016-06-06T11:42:13.251Z,5080
2016-06-06T11:43:16.332Z,5976
2016-06-06T11:44:13.912Z,5612
2016-06-06T11:45:12.900Z,4904
2016-06-06T11:46:12.840Z,4384
2016-06-06T11:47:13.327Z,4264
2016-06-06T11:48:15.923Z,4568
2016-06-06T11:49:12.864Z,4848
2016-06-06T11:50:12.804Z,5148
2016-06-06T11:51:12.791Z,5160
2016-06-06T11:52:12.731Z,4616
2016-06-06T11:53:12.766Z,3792
2016-06-06T11:54:12.658Z,3332
2016-06-06T11:55:13.427Z,3780
2016-06-06T11:56:12.586Z,4212
2016-06-06T11:57:15.541Z,4508
2016-06-06T11:58:13.138Z,4828
2016-06-06T11:59:13.327Z,5080
2016-06-06T12:00:12.910Z,5304
2016-06-06T12:01:12.441Z,5756
2016-06-06T12:02:12.537Z,5520
2016-06-06T12:03:12.476Z,5336
2016-06-06T12:04:12.089Z,5112
2016-06-06T12:05:12.217Z,5352
2016-06-06T12:06:12.157Z,5480
2016-06-06T12:07:12.237Z,4972
2016-06-06T12:08:12.116Z,4484
2016-06-06T12:09:12.618Z,3960
2016-06-06T12:10:12.058Z,4100
2016-06-06T12:11:11.827Z,4336
2016-06-06T12:12:11.939Z,4364
2016-06-06T12:13:15.179Z,4420
2016-06-06T12:14:12.257Z,5016
2016-06-06T12:15:11.540Z,5336
2016-06-06T12:16:12.090Z,5320
2016-06-06T12:17:12.093Z,5324
2016-06-06T12:18:11.689Z,5476
2016-06-06T12:19:11.661Z,5656
2016-06-06T12:20:12.648Z,6100
2016-06-06T12:21:11.588Z,6252
2016-06-06T12:22:11.637Z,6172
2016-06-06T12:23:11.344Z,6808
2016-06-06T12:24:11.642Z,7392
2016-06-06T12:25:11.677Z,7512
2016-06-06T12:26:11.554Z,6960
2016-06-06T12:27:14.591Z,7776
2016-06-06T12:28:11.294Z,8704
2016-06-06T12:29:11.093Z,8680
2016-06-06T12:30:11.971Z,8636
2016-06-06T12:31:11.208Z,8072
2016-06-06T12:32:14.167Z,6544
2016-06-06T12:33:11.136Z,6048
2016-06-06T12:34:11.279Z,5972
2016-06-06T12:35:14.015Z,6224
2016-06-06T12:36:11.004Z,6280
2016-06-06T12:37:10.959Z,6428
2016-06-06T12:38:10.899Z,6836
2016-06-06T12:39:10.964Z,7216
2016-06-06T12:40:11.014Z,7204
2016-06-06T12:41:10.767Z,6972
2016-06-06T12:42:11.285Z,6932
2016-06-06T12:43:13.787Z,7540
2016-06-06T12:44:14.385Z,7788
2016-06-06T12:45:10.590Z,7344
2016-06-06T12:46:10.639Z,7652
2016-06-06T12:47:11.439Z,6880
2016-06-06T12:48:10.520Z,6276
2016-06-06T12:49:10.976Z,6096
2016-06-06T12:50:13.447Z,6692
2016-06-06T12:51:10.653Z,6252
2016-06-06T12:52:10.359Z,6260
2016-06-06T12:53:10.330Z,6432
2016-06-06T12:54:10.458Z,6660
2016-06-06T12:55:13.242Z,6800
2016-06-06T12:56:10.198Z,6924
2016-06-06T12:57:11.028Z,7044
2016-06-06T12:58:10.093Z,7096
2016-06-06T12:59:13.986Z,6784
2016-06-06T13:00:11.005Z,6492
2016-06-06T13:01:10.602Z,6316
2016-06-06T13:02:10.011Z,6244
2016-06-06T13:03:09.935Z,6044
2016-06-06T13:04:10.282Z,5916
2016-06-06T13:05:09.831Z,5808
2016-06-06T13:06:13.694Z,5812
2016-06-06T13:07:12.758Z,5812
2016-06-06T13:08:09.948Z,5980
2016-06-06T13:09:10.124Z,5700
2016-06-06T13:10:09.720Z,5272
2016-06-06T13:11:12.488Z,4860
2016-06-06T13:12:09.553Z,4552
2016-06-06T13:13:12.728Z,4436
2016-06-06T13:14:10.902Z,4464
2016-06-06T13:15:10.468Z,4548
2016-06-06T13:16:12.845Z,4664
2016-06-06T13:17:09.551Z,4736
2016-06-06T13:18:09.334Z,4816
2016-06-06T13:19:09.275Z,4944
2016-06-06T13:20:18.453Z,4996
2016-06-06T13:21:09.328Z,5032
2016-06-06T13:22:18.192Z,5072
2016-06-06T13:23:09.130Z,5092
2016-06-06T13:24:09.273Z,5044
2016-06-06T13:25:09.072Z,4920
2016-06-06T13:26:08.997Z,4740
2016-06-06T13:27:09.547Z,4512
2016-06-06T13:28:09.330Z,4272
2016-06-06T13:29:12.817Z,4056
2016-06-06T13:30:11.899Z,3928
2016-06-06T13:31:09.010Z,3860
2016-06-06T13:32:11.810Z,3816
2016-06-06T13:33:08.766Z,3792
2016-06-06T13:34:08.721Z,3756
2016-06-06T13:35:08.896Z,3736
2016-06-06T13:36:11.790Z,3688
2016-06-06T13:37:08.793Z,3684
2016-06-06T13:38:08.904Z,3700
2016-06-06T13:39:08.766Z,3668
2016-06-06T13:40:10.582Z,3584
2016-06-06T13:41:08.631Z,3512
2016-06-06T13:42:11.571Z,3464
2016-06-06T13:43:11.636Z,3456
2016-06-06T13:44:11.765Z,3472
2016-06-06T13:45:08.486Z,3500
2016-06-06T13:46:08.457Z,3516
2016-06-06T13:47:08.428Z,3480
2016-06-06T13:48:08.151Z,3420
2016-06-06T13:49:11.153Z,3356
2016-06-06T13:50:08.061Z,3264
2016-06-06T13:51:08.423Z,3136
2016-06-06T13:52:07.864Z,3012
2016-06-06T13:53:08.414Z,2908
2016-06-06T13:54:07.791Z,2896
2016-06-06T13:55:07.903Z,2928
2016-06-06T13:56:13.844Z,2896
2016-06-06T13:57:07.799Z,2840
2016-06-06T13:58:07.849Z,2792
2016-06-06T13:59:08.241Z,2808
2016-06-06T14:00:07.885Z,2824
2016-06-06T14:01:07.622Z,2788
2016-06-06T14:02:08.078Z,2716
2016-06-06T14:03:07.550Z,2680
2016-06-06T14:04:07.536Z,2684
2016-06-06T14:05:07.664Z,2712
2016-06-06T14:06:07.761Z,2724
2016-06-06T14:07:07.389Z,2756
2016-06-06T14:08:07.282Z,2816
2016-06-06T14:09:07.300Z,2936
2016-06-06T14:10:10.209Z,3168
2016-06-06T14:11:10.290Z,3484
2016-06-06T14:12:07.152Z,3772
2016-06-06T14:13:07.124Z,3892
2016-06-06T14:14:07.345Z,3856
2016-06-06T14:15:07.613Z,3800
2016-06-06T14:16:07.179Z,3784
2016-06-06T14:17:09.979Z,3820
2016-06-06T14:18:09.918Z,3840
2016-06-06T14:19:07.030Z,3844
2016-06-06T14:20:09.829Z,3812
2016-06-06T14:21:06.957Z,3764
2016-06-06T14:22:09.741Z,3708
2016-06-06T14:23:06.900Z,3664
2016-06-06T14:24:06.700Z,3660
2016-06-06T14:25:06.937Z,3656
2016-06-06T14:26:06.612Z,3680
2016-06-06T14:27:06.583Z,3724
2016-06-06T14:28:06.491Z,3748
2016-06-06T14:29:06.479Z,3744
2016-06-06T14:30:07.028Z,3696
2016-06-06T14:31:06.562Z,3640
2016-06-06T14:32:09.675Z,3532
2016-06-06T14:33:06.114Z,3452
2016-06-06T14:34:06.242Z,3424
2016-06-06T14:35:06.448Z,3428
2016-06-06T14:36:06.810Z,3472
2016-06-06T14:37:06.641Z,3556
2016-06-06T14:38:06.660Z,3688
2016-06-06T14:39:06.271Z,3860
2016-06-06T14:40:09.291Z,4080
2016-06-06T14:41:09.183Z,4436
2016-06-06T14:42:06.029Z,4792
2016-06-06T14:43:05.891Z,5312
2016-06-06T14:44:05.894Z,6008
2016-06-06T14:45:06.694Z,6512
2016-06-06T14:46:08.978Z,6976
2016-06-06T14:47:05.777Z,7588
2016-06-06T14:48:05.686Z,8444
2016-06-06T14:49:08.674Z,9108
2016-06-06T14:50:06.129Z,9584
2016-06-06T14:51:08.741Z,10228
2016-06-06T14:52:05.853Z,10736
2016-06-06T14:53:08.512Z,10988
2016-06-06T14:54:16.186Z,11052
2016-06-06T14:55:05.908Z,10964
2016-06-06T14:56:05.442Z,10860
2016-06-06T14:57:05.320Z,10720
2016-06-06T14:58:05.681Z,10728
2016-06-06T14:59:05.264Z,10588
2016-06-06T15:00:05.734Z,10300
2016-06-06T15:01:05.175Z,10044
2016-06-06T15:02:05.317Z,9776
2016-06-06T15:03:05.102Z,9544
2016-06-06T15:04:05.058Z,9664
2016-06-06T15:05:08.622Z,9808
2016-06-06T15:06:05.157Z,10236
2016-06-06T15:07:05.003Z,9956
2016-06-06T15:08:04.880Z,9504
2016-06-06T15:09:04.884Z,9384
2016-06-06T15:10:04.652Z,9816
2016-06-06T15:11:07.826Z,10028
2016-06-06T15:12:04.719Z,10488
2016-06-06T15:13:07.769Z,23008
2016-06-06T15:14:04.881Z,47392
2016-06-06T15:15:04.290Z,64192
2016-06-06T15:16:07.637Z,62336
2016-06-06T15:17:07.701Z,57440
2016-06-06T15:18:07.329Z,53824
2016-06-06T15:19:04.442Z,58784
2016-06-06T15:20:07.413Z,64960
2016-06-06T15:21:04.526Z,65344
2016-06-06T15:22:04.325Z,64288
2016-06-06T15:23:04.296Z,62112
2016-06-06T15:24:07.424Z,61600
2016-06-06T15:25:04.271Z,62016
2016-06-06T15:26:04.195Z,62656
2016-06-06T15:27:08.150Z,63392
2016-06-06T15:28:04.153Z,62560
2016-06-06T15:29:07.312Z,61120
2016-06-06T15:30:07.909Z,60032
2016-06-06T15:31:07.178Z,58400
2016-06-06T15:32:03.992Z,59776
2016-06-06T15:33:03.964Z,59744
2016-06-06T15:34:03.747Z,57024
2016-06-06T15:35:03.861Z,53664
2016-06-06T15:36:07.019Z,53568
2016-06-06T15:37:04.334Z,50304
2016-06-06T15:38:03.821Z,40128
2016-06-06T15:39:06.761Z,52704
2016-06-06T15:40:03.686Z,51616
2016-06-06T15:41:03.688Z,48736
2016-06-06T15:42:03.629Z,43808
2016-06-06T15:43:03.584Z,36832
2016-06-06T15:44:06.634Z,29536
2016-06-06T15:45:07.027Z,31584
2016-06-06T15:46:03.452Z,39712
2016-06-06T15:47:03.643Z,38560
2016-06-06T15:48:03.410Z,38272
2016-06-06T15:49:03.335Z,40544
2016-06-06T15:50:03.338Z,40768
2016-06-06T15:51:03.279Z,36960
2016-06-06T15:52:04.437Z,40416
2016-06-06T15:53:09.377Z,33184
2016-06-06T15:54:06.207Z,36704
2016-06-06T15:55:03.179Z,36288
2016-06-06T15:56:03.948Z,33024
2016-06-06T15:57:03.122Z,26432
2016-06-06T15:58:06.297Z,14656
2016-06-06T15:59:02.862Z,9288
2016-06-06T16:00:09.662Z,7392
2016-06-06T16:01:02.976Z,7008
2016-06-06T16:02:02.886Z,6456
2016-06-06T16:03:05.701Z,6048
2016-06-06T16:04:02.688Z,5608
2016-06-06T16:05:02.972Z,5244
2016-06-06T16:06:03.522Z,4912
2016-06-06T16:07:02.711Z,4580
2016-06-06T16:08:08.527Z,4376
2016-06-06T16:09:02.827Z,4284
2016-06-06T16:10:06.111Z,4160
2016-06-06T16:11:02.441Z,4052
2016-06-06T16:12:04.366Z,3936
2016-06-06T16:13:02.463Z,3848
2016-06-06T16:14:08.450Z,3764
2016-06-06T16:15:02.593Z,3676
2016-06-06T16:16:02.346Z,3584
2016-06-06T16:17:02.316Z,3520
2016-06-06T16:18:05.288Z,3464
2016-06-06T16:19:02.447Z,3424
2016-06-06T16:20:05.232Z,3364
2016-06-06T16:21:02.202Z,3296
2016-06-06T16:22:02.143Z,3220
2016-06-06T16:23:02.365Z,3132
2016-06-06T16:24:02.054Z,3056
2016-06-06T16:25:05.026Z,2992
2016-06-06T16:26:02.029Z,2924
2016-06-06T16:27:02.171Z,2880
2016-06-06T16:28:01.909Z,2828
2016-06-06T16:29:02.302Z,2792
2016-06-06T16:30:03.336Z,2788
2016-06-06T16:31:02.526Z,2796
2016-06-06T16:32:01.826Z,2836
2016-06-06T16:33:11.312Z,2900
2016-06-06T16:34:01.769Z,2948
2016-06-06T16:35:01.615Z,2956
2016-06-06T16:36:01.603Z,2972
2016-06-06T16:37:01.558Z,2940
2016-06-06T16:38:01.530Z,2932
2016-06-06T16:39:01.876Z,3028
2016-06-06T16:40:01.644Z,3124
2016-06-06T16:41:04.444Z,3088
2016-06-06T16:42:01.337Z,3092
2016-06-06T16:43:04.298Z,3168
2016-06-06T16:44:04.274Z,3348
2016-06-06T16:45:07.688Z,3468
2016-06-06T16:46:04.211Z,3592
2016-06-06T16:47:01.172Z,3764
2016-06-06T16:48:01.130Z,3896
2016-06-06T16:49:01.291Z,3932
2016-06-06T16:50:01.247Z,4152
2016-06-06T16:51:01.002Z,4396
2016-06-06T16:52:01.021Z,4448
2016-06-06T16:53:00.947Z,4700
2016-06-06T16:54:00.903Z,4768
2016-06-06T16:55:00.845Z,4848
2016-06-06T16:56:00.989Z,4904
2016-06-06T16:57:00.836Z,4916
2016-06-06T16:58:00.730Z,4884
2016-06-06T16:59:00.763Z,4832
2016-06-06T17:00:01.189Z,4768
2016-06-06T17:01:00.911Z,4652
2016-06-06T17:02:03.586Z,4568
2016-06-06T17:03:00.542Z,4480
2016-06-06T17:04:00.419Z,4396
2016-06-06T17:05:00.469Z,4308
2016-06-06T17:06:00.689Z,4256
2016-06-06T17:07:00.381Z,4232
2016-06-06T17:08:00.930Z,4212
2016-06-06T17:09:03.308Z,4180
2016-06-06T17:10:00.264Z,4164
2016-06-06T17:11:03.422Z,4156
2016-06-06T17:12:00.175Z,4140
2016-06-06T17:13:00.241Z,4124
2016-06-06T17:14:00.086Z,4096
2016-06-06T17:15:00.043Z,4068
2016-06-06T17:15:59.889Z,4036
2016-06-06T17:17:00.016Z,3996
2016-06-06T17:18:00.144Z,3956
2016-06-06T17:18:59.913Z,3904
2016-06-06T17:20:00.071Z,3872
2016-06-06T17:21:00.012Z,3836
2016-06-06T17:21:59.593Z,3792
2016-06-06T17:22:59.736Z,3744
2016-06-06T17:23:59.988Z,3692
2016-06-06T17:24:59.663Z,3624
2016-06-06T17:25:59.618Z,3552
2016-06-06T17:26:59.575Z,3468
2016-06-06T17:27:59.531Z,3380
2016-06-06T17:28:59.705Z,3292
2016-06-06T17:30:00.318Z,3204
2016-06-06T17:30:59.195Z,3116
2016-06-06T17:31:59.369Z,3024
2016-06-06T17:32:59.342Z,2928
2016-06-06T17:33:59.281Z,2836
2016-06-06T17:34:59.252Z,2752
2016-06-06T17:35:59.208Z,2688
2016-06-06T17:36:59.242Z,2632
2016-06-06T17:37:59.322Z,2576
2016-06-06T17:39:02.311Z,2516
2016-06-06T17:39:59.063Z,2456
2016-06-06T17:40:58.862Z,2384
2016-06-06T17:41:58.975Z,2304
2016-06-06T17:42:59.133Z,2232
2016-06-06T17:43:58.886Z,2160
2016-06-06T17:44:59.201Z,2096
2016-06-06T17:45:58.658Z,2044
2016-06-06T17:46:58.832Z,2000
2016-06-06T17:47:58.756Z,1956
2016-06-06T17:48:58.510Z,1908
2016-06-06T17:50:01.637Z,1872
2016-06-06T17:50:58.607Z,1840
2016-06-06T17:51:58.548Z,1804
2016-06-06T17:52:58.504Z,1772
2016-06-06T17:53:58.491Z,1744
2016-06-06T17:54:58.431Z,1716
2016-06-06T17:55:58.387Z,1676
2016-06-06T17:56:58.593Z,1640
2016-06-06T17:57:58.517Z,1612
2016-06-06T17:59:04.332Z,1580
2016-06-06T18:00:02.132Z,1556
2016-06-06T18:00:58.463Z,1536
2016-06-06T18:02:01.231Z,1520
2016-06-06T18:02:58.093Z,1504
2016-06-06T18:03:57.956Z,1488
2016-06-06T18:04:58.036Z,1484
2016-06-06T18:06:01.226Z,1464
2016-06-06T18:06:58.151Z,1448
2016-06-06T18:07:57.981Z,1428
2016-06-06T18:08:57.875Z,1416
2016-06-06T18:10:03.972Z,1408
2016-06-06T18:11:03.818Z,1400
2016-06-06T18:11:57.774Z,1400
2016-06-06T18:12:57.699Z,1400
2016-06-06T18:13:57.748Z,1404
2016-06-06T18:14:58.313Z,1420
2016-06-06T18:15:57.441Z,1432
2016-06-06T18:16:57.538Z,1448
2016-06-06T18:17:57.477Z,1452
2016-06-06T18:18:57.277Z,1452
2016-06-06T18:19:57.405Z,1448
2016-06-06T18:21:00.392Z,1436
2016-06-06T18:21:57.176Z,1428
2016-06-06T18:22:57.194Z,1416
2016-06-06T18:23:57.259Z,1400
2016-06-06T18:24:57.263Z,1384
2016-06-06T18:26:00.217Z,1364
2016-06-06T18:27:00.142Z,1352
2016-06-06T18:27:59.989Z,1332
2016-06-06T18:29:06.054Z,1324
2016-06-06T18:30:00.322Z,1316
2016-06-06T18:30:56.998Z,1296
2016-06-06T18:32:00.109Z,1264
2016-06-06T18:32:56.923Z,1240
2016-06-06T18:33:56.864Z,1224
2016-06-06T18:34:57.008Z,1208
2016-06-06T18:35:56.776Z,1188
2016-06-06T18:36:56.716Z,1176
2016-06-06T18:37:56.891Z,1160
2016-06-06T18:38:56.659Z,1140
2016-06-06T18:39:59.817Z,1116
2016-06-06T18:40:56.555Z,1092
2016-06-06T18:42:02.527Z,1056
2016-06-06T18:42:59.669Z,1028
2016-06-06T18:43:59.423Z,996
2016-06-06T18:45:00.113Z,968
2016-06-06T18:45:57.303Z,948
2016-06-06T18:46:56.368Z,928
2016-06-06T18:47:59.308Z,912
2016-06-06T18:48:56.233Z,892
2016-06-06T18:49:56.204Z,868
2016-06-06T18:50:56.160Z,848
2016-06-06T18:51:56.100Z,832
2016-06-06T18:52:56.072Z,816
2016-06-06T18:53:56.043Z,796
2016-06-06T18:54:55.982Z,780
2016-06-06T18:55:56.252Z,768
2016-06-06T18:56:55.895Z,752
2016-06-06T18:57:55.960Z,736
2016-06-06T18:58:55.682Z,716
2016-06-06T18:59:56.950Z,700
2016-06-06T19:00:56.327Z,684
2016-06-06T19:01:58.736Z,664
2016-06-06T19:02:55.692Z,644
2016-06-06T19:03:55.851Z,624
2016-06-06T19:04:55.619Z,600
2016-06-06T19:05:55.575Z,584
2016-06-06T19:06:58.734Z,572
2016-06-06T19:07:55.472Z,552
2016-06-06T19:09:01.083Z,532
2016-06-06T19:09:55.586Z,520
2016-06-06T19:10:55.417Z,504
2016-06-06T19:11:55.795Z,488
2016-06-06T19:12:58.563Z,472
2016-06-06T19:14:01.284Z,456
2016-06-06T19:14:55.193Z,436
2016-06-06T19:15:58.322Z,416
2016-06-06T19:16:55.496Z,400
2016-06-06T19:17:58.545Z,376
2016-06-06T19:18:55.282Z,356
2016-06-06T19:19:55.160Z,340
2016-06-06T19:20:57.913Z,320
2016-06-06T19:22:00.885Z,304
2016-06-06T19:23:00.918Z,288
2016-06-06T19:23:54.655Z,276
2016-06-06T19:25:03.845Z,268
2016-06-06T19:25:57.707Z,256
2016-06-06T19:26:57.694Z,240
2016-06-06T19:27:54.868Z,224
2016-06-06T19:29:00.840Z,204
2016-06-06T19:29:54.577Z,192
2016-06-06T19:30:57.518Z,180
2016-06-06T19:31:54.332Z,164
2016-06-06T19:32:54.414Z,152
2016-06-06T19:33:57.417Z,136
2016-06-06T19:34:54.356Z,128
2016-06-06T19:35:57.562Z,120
2016-06-06T19:36:54.643Z,112
2016-06-06T19:38:00.224Z,104
2016-06-06T19:38:54.242Z,100
2016-06-06T19:39:54.245Z,96
2016-06-06T19:40:54.311Z,88
2016-06-06T19:41:54.094Z,80
2016-06-06T19:42:54.394Z,80
2016-06-06T19:43:54.069Z,72
2016-06-06T19:44:56.899Z,68
2016-06-06T19:45:53.886Z,68
2016-06-06T19:46:53.827Z,64
2016-06-06T19:47:53.782Z,60
2016-06-06T19:48:56.769Z,52
2016-06-06T19:49:54.240Z,48
2016-06-06T19:50:53.680Z,48
2016-06-06T19:51:53.668Z,44
2016-06-06T19:52:53.577Z,36
2016-06-06T19:53:56.360Z,36
2016-06-06T19:54:56.519Z,32
2016-06-06T19:55:54.069Z,28
2016-06-06T19:56:53.807Z,28
2016-06-06T19:58:02.699Z,24
2016-06-06T19:58:53.702Z,20
2016-06-06T19:59:56.657Z,20
2016-06-06T20:00:53.364Z,20
2016-06-06T20:01:56.538Z,20
2016-06-06T20:02:59.478Z,16
2016-06-06T20:03:53.325Z,12
2016-06-06T20:04:53.141Z,12
2016-06-06T20:05:53.970Z,12
2016-06-06T20:06:59.146Z,8
2016-06-06T20:07:53.383Z,8
2016-06-06T20:08:56.167Z,8
2016-06-06T20:09:53.059Z,4
2016-06-06T20:10:59.203Z,8
2016-06-06T20:11:52.925Z,4
2016-06-06T20:12:53.021Z,4
2016-06-06T20:13:52.758Z,4
2016-06-06T20:14:55.777Z,4
2016-06-06T20:15:52.857Z,4
2016-06-06T20:16:52.922Z,4
2016-06-06T20:17:55.581Z,4
2016-06-06T20:18:52.850Z,0
2016-06-06T20:20:02.305Z,0
2016-06-06T20:20:52.747Z,4
2016-06-06T20:21:53.014Z,4
2016-06-06T20:22:55.423Z,0
2016-06-06T20:23:52.426Z,0
2016-06-06T20:24:52.413Z,0
2016-06-06T20:25:52.571Z,0
2016-06-06T20:26:52.449Z,0
2016-06-06T20:27:55.343Z,0
2016-06-06T20:28:52.205Z,0
2016-06-06T20:29:55.442Z,0
2016-06-06T20:30:52.195Z,0
2016-06-06T20:31:52.041Z,0
2016-06-06T20:32:54.966Z,0
2016-06-06T20:33:52.141Z,0
2016-06-06T20:34:58.643Z,0
2016-06-06T20:35:58.379Z,0
2016-06-06T20:36:56.226Z,0
2016-06-06T20:37:52.104Z,0
2016-06-06T20:38:54.778Z,0
2016-06-06T20:39:51.859Z,0
2016-06-06T20:40:54.925Z,0
2016-06-06T20:41:54.756Z,0
2016-06-06T20:42:51.711Z,0
2016-06-06T20:43:51.667Z,0
2016-06-06T20:44:54.575Z,0
2016-06-06T20:45:51.391Z,0
2016-06-06T20:46:57.425Z,0
2016-06-06T20:47:54.412Z,0
2016-06-06T20:48:54.352Z,0
2016-06-06T20:49:51.605Z,0
2016-06-06T20:50:57.826Z,0
2016-06-06T20:51:54.516Z,0
2016-06-06T20:52:51.285Z,0
2016-06-06T20:53:51.272Z,0
2016-06-06T20:54:54.462Z,0
2016-06-06T20:56:06.105Z,0
2016-06-06T20:56:54.077Z,0
2016-06-06T20:58:05.955Z,0
2016-06-06T20:58:56.816Z,0
2016-06-06T20:59:50.944Z,0
2016-06-06T21:00:50.916Z,0
2016-06-06T21:01:53.700Z,0
2016-06-06T21:02:53.657Z,0
2016-06-06T21:03:50.611Z,0
2016-06-06T21:04:50.411Z,0
2016-06-06T21:05:56.993Z,0
2016-06-06T21:06:53.542Z,0
2016-06-06T21:07:53.872Z,0
2016-06-06T21:08:50.625Z,0
2016-06-06T21:09:53.503Z,0
2016-06-06T21:10:50.443Z,0
2016-06-06T21:11:50.461Z,0
2016-06-06T21:12:53.229Z,0
2016-06-06T21:13:50.170Z,0
2016-06-06T21:14:50.157Z,0
2016-06-06T21:15:50.378Z,0
2016-06-06T21:16:50.053Z,0
2016-06-06T21:17:50.024Z,0
2016-06-06T21:18:55.996Z,0
2016-06-06T21:19:57.451Z,0
2016-06-06T21:20:50.422Z,0
2016-06-06T21:21:55.832Z,0
2016-06-06T21:22:49.819Z,0
2016-06-06T21:23:49.743Z,0
2016-06-06T21:24:52.730Z,0
2016-06-06T21:25:49.671Z,0
2016-06-06T21:26:49.674Z,0
2016-06-06T21:27:49.598Z,0
2016-06-06T21:28:49.538Z,0
2016-06-06T21:29:49.729Z,0
2016-06-06T21:30:49.512Z,0
2016-06-06T21:31:49.405Z,0
2016-06-06T21:32:52.642Z,0
2016-06-06T21:33:55.348Z,0
2016-06-06T21:34:55.398Z,0
2016-06-06T21:35:52.276Z,0
2016-06-06T21:36:52.215Z,0
2016-06-06T21:37:52.187Z,0
2016-06-06T21:38:48.971Z,0
2016-06-06T21:39:50.287Z,0
2016-06-06T21:40:49.570Z,0
2016-06-06T21:41:51.995Z,0
2016-06-06T21:42:48.934Z,0
2016-06-06T21:43:49.094Z,0
2016-06-06T21:44:49.081Z,0
2016-06-06T21:45:51.849Z,0
2016-06-06T21:46:55.149Z,0
2016-06-06T21:47:51.745Z,0
2016-06-06T21:48:51.717Z,0
2016-06-06T21:49:52.500Z,0
2016-06-06T21:50:51.956Z,0
2016-06-06T21:51:48.975Z,0
2016-06-06T21:52:51.541Z,0
2016-06-06T21:53:48.480Z,0
2016-06-06T21:54:48.327Z,0
2016-06-06T21:55:51.391Z,0
2016-06-06T21:56:51.347Z,0
2016-06-06T21:57:54.350Z,0
2016-06-06T21:58:48.650Z,0
2016-06-06T21:59:48.543Z,0
2016-06-06T22:00:51.218Z,0
2016-06-06T22:01:51.221Z,0
2016-06-06T22:02:54.224Z,0
2016-06-06T22:03:51.085Z,0
2016-06-06T22:04:50.729Z,0
2016-06-06T22:05:47.809Z,0
2016-06-06T22:06:47.953Z,0
2016-06-06T22:07:50.862Z,0
2016-06-06T22:08:50.849Z,0
2016-06-06T22:09:50.804Z,0
2016-06-06T22:10:47.823Z,0